Time;durP1;ratioP1;P1;durP2;ratioP2;P2;SDS_P1;SDS_P2;PMS_P1;PMS_P2;Temp;Humidity;BMP_temperature;BMP_pressure;BME280_temperature;BME280_humidity;BME280_pressure;Samples;Min_cycle;Max_cycle;Signal;HPM_P1;HPM_P2
2022/07/19 00:00:12;;;;;;;2.90;1.15;;;;;;;20.77;54.46;100373.97;5063466;28;20482;-83
2022/07/19 00:02:38;;;;;;;0.60;0.60;;;;;;;20.89;53.98;100360.00;5068637;28;20417;-83
2022/07/19 00:05:04;;;;;;;2.53;1.38;;;;;;;20.74;54.55;100356.22;5069157;28;20089;-83
2022/07/19 00:07:30;;;;;;;2.58;0.80;;;;;;;20.80;53.76;100358.59;5062904;28;20133;-84
2022/07/19 00:09:56;;;;;;;1.65;0.63;;;;;;;20.61;54.37;100344.31;5048860;28;20029;-84
2022/07/19 00:12:21;;;;;;;1.27;1.02;;;;;;;20.44;54.07;100345.94;5062137;28;20525;-84
2022/07/19 00:14:47;;;;;;;1.38;0.93;;;;;;;20.45;54.26;100349.50;5068402;28;20068;-84
2022/07/19 00:17:12;;;;;;;1.95;1.35;;;;;;;20.35;55.19;100344.53;5067856;28;20029;-84
2022/07/19 00:19:38;;;;;;;0.93;0.65;;;;;;;20.54;55.22;100365.16;5069241;28;20071;-84
2022/07/19 00:22:04;;;;;;;0.57;0.57;;;;;;;20.77;54.42;100373.97;5067821;28;20086;-84
2022/07/19 00:24:29;;;;;;;0.65;0.47;;;;;;;20.57;54.04;100349.81;5049361;28;20376;-84
2022/07/19 00:26:55;;;;;;;2.00;0.80;;;;;;;20.69;53.99;100367.16;5048358;28;20123;-83
2022/07/19 00:29:20;;;;;;;1.73;1.25;;;;;;;20.56;54.59;100372.19;5067206;28;20033;-83
2022/07/19 00:31:46;;;;;;;1.10;0.82;;;;;;;20.38;54.68;100349.78;5053281;28;20044;-82
2022/07/19 00:34:11;;;;;;;0.70;0.60;;;;;;;20.51;54.74;100351.88;5048187;28;20116;-83
2022/07/19 00:36:37;;;;;;;8.68;0.90;;;;;;;20.38;55.07;100344.41;5049680;28;20033;-83
2022/07/19 00:39:03;;;;;;;0.50;0.50;;;;;;;20.59;54.62;100365.81;5048359;28;20044;-83
2022/07/19 00:41:28;;;;;;;0.68;0.45;;;;;;;20.54;54.76;100352.63;5048503;28;20560;-83
2022/07/19 00:43:55;;;;;;;0.68;0.60;;;;;;;20.56;54.76;100345.38;5055277;28;20040;-83
2022/07/19 00:46:21;;;;;;;1.83;0.52;;;;;;;20.49;54.58;100351.09;5048219;28;20121;-83
2022/07/19 00:48:48;;;;;;;1.38;0.70;;;;;;;20.47;54.52;100350.31;5048637;28;20043;-83
2022/07/19 00:51:15;;;;;;;2.08;0.90;;;;;;;20.42;53.64;100330.88;5049068;28;20767;-84
2022/07/19 00:53:43;;;;;;;1.83;1.33;;;;;;;20.37;54.30;100337.34;5068326;28;20048;-84
2022/07/19 00:56:10;;;;;;;0.52;0.52;;;;;;;20.27;54.53;100332.47;5067505;28;20422;-84
2022/07/19 00:58:37;;;;;;;0.73;0.52;;;;;;;20.17;54.69;100326.63;5067586;28;20064;-84
2022/07/19 01:01:04;;;;;;;1.13;0.98;;;;;;;20.29;54.82;100352.84;5040887;28;20056;-83
2022/07/19 01:03:30;;;;;;;1.02;0.73;;;;;;;20.13;54.91;100328.59;5068233;28;20032;-83
2022/07/19 01:05:56;;;;;;;1.67;1.17;;;;;;;20.27;54.60;100332.47;5067828;28;20039;-83
2022/07/19 01:08:21;;;;;;;0.60;0.60;;;;;;;20.24;54.73;100348.66;5067712;28;20512;-83
2022/07/19 01:10:47;;;;;;;1.33;0.80;;;;;;;20.27;54.43;100332.47;5066996;28;20103;-83
2022/07/19 01:13:13;;;;;;;0.50;0.43;;;;;;;20.20;54.47;100338.09;5057424;28;20047;-83
2022/07/19 01:15:40;;;;;;;0.68;0.68;;;;;;;20.06;54.74;100339.63;5068111;28;20040;-84
2022/07/19 01:18:06;;;;;;;0.95;0.60;;;;;;;20.07;54.72;100339.56;5067581;28;20581;-83
2022/07/19 01:20:32;;;;;;;0.75;0.70;;;;;;;19.90;54.64;100321.56;5054089;28;20124;-84
2022/07/19 01:22:58;;;;;;;0.90;0.60;;;;;;;20.06;54.63;100339.63;5048047;28;20418;-83
2022/07/19 01:25:25;;;;;;;1.20;0.68;;;;;;;19.82;55.70;100348.66;5060354;28;20056;-83
2022/07/19 01:27:51;;;;;;;1.80;0.82;;;;;;;19.64;55.65;100312.81;5067037;28;20032;-83
2022/07/19 01:30:20;;;;;;;1.60;0.95;;;;;;;19.68;56.48;100325.13;5067053;28;20093;-83
2022/07/19 01:32:47;;;;;;;1.15;0.88;;;;;;;19.71;56.26;100332.19;5064172;28;20032;-83
2022/07/19 01:35:13;;;;;;;0.82;0.75;;;;;;;19.66;56.10;100327.03;5048413;28;20044;-83
2022/07/19 01:37:39;;;;;;;1.60;0.90;;;;;;;19.58;56.28;100320.25;5058868;28;20036;-83
2022/07/19 01:40:08;;;;;;;3.55;0.90;;;;;;;19.43;57.00;100330.66;5049112;28;20422;-83
2022/07/19 01:42:33;;;;;;;3.70;1.55;;;;;;;19.30;57.59;100334.78;5032068;28;20594;-84
2022/07/19 01:44:59;;;;;;;1.13;1.00;;;;;;;19.21;58.25;100327.97;5047237;28;20057;-83
2022/07/19 01:47:25;;;;;;;1.95;0.80;;;;;;;19.25;58.45;100326.94;5047272;28;20033;-83
2022/07/19 01:49:51;;;;;;;1.70;1.00;;;;;;;19.17;58.64;100346.88;5056685;28;20089;-83
2022/07/19 01:52:16;;;;;;;1.60;1.10;;;;;;;19.01;59.63;100344.81;5066882;28;20036;-83
2022/07/19 01:54:42;;;;;;;1.52;1.10;;;;;;;19.06;59.25;100334.84;5057761;28;20037;-83
2022/07/19 01:57:07;;;;;;;0.50;0.50;;;;;;;19.32;58.69;100362.31;5029122;28;20426;-84
2022/07/19 01:59:36;;;;;;;1.83;0.80;;;;;;;19.45;58.02;100346.66;5046809;28;20056;-84
2022/07/19 02:02:01;;;;;;;2.00;1.10;;;;;;;19.26;58.09;100322.44;5046997;28;20107;-84
2022/07/19 02:04:27;;;;;;;0.98;0.70;;;;;;;19.37;58.13;100336.28;5058801;28;20038;-83
2022/07/19 02:06:52;;;;;;;1.17;0.70;;;;;;;19.44;57.88;100324.34;5059817;28;20033;-83
2022/07/19 02:09:17;;;;;;;1.60;0.95;;;;;;;19.64;57.53;100350.28;5046892;28;20043;-82
2022/07/19 02:11:43;;;;;;;0.60;0.45;;;;;;;19.41;57.57;100326.31;5047756;28;20880;-83
2022/07/19 02:14:09;;;;;;;1.05;0.93;;;;;;;19.31;58.31;100337.38;5047120;28;20036;-82
2022/07/19 02:16:36;;;;;;;1.27;0.70;;;;;;;19.29;58.34;100359.75;5028922;28;20124;-83
2022/07/19 02:19:02;;;;;;;1.50;0.90;;;;;;;19.35;58.07;100340.78;5050888;28;20032;-83
2022/07/19 02:21:27;;;;;;;0.95;0.68;;;;;;;19.43;58.08;100348.50;5064729;28;20051;-82
2022/07/19 02:23:53;;;;;;;0.90;0.80;;;;;;;19.42;58.48;100363.69;5059904;28;20049;-83
2022/07/19 02:26:18;;;;;;;1.10;0.77;;;;;;;19.42;58.12;100361.00;5046748;28;20037;-83
2022/07/19 02:28:44;;;;;;;3.50;1.15;;;;;;;19.37;58.30;100360.34;5046604;28;20128;-83
2022/07/19 02:31:10;;;;;;;1.65;0.90;;;;;;;19.34;58.89;100363.16;5029110;28;20555;-83
2022/07/19 02:33:35;;;;;;;1.55;1.30;;;;;;;19.29;59.00;100365.13;5028926;28;20075;-82
2022/07/19 02:36:01;;;;;;;1.70;0.95;;;;;;;19.33;59.29;100374.75;5046192;28;20426;-82
2022/07/19 02:38:26;;;;;;;1.38;0.63;;;;;;;19.38;59.05;100388.81;5046588;28;20041;-83
2022/07/19 02:40:52;;;;;;;1.05;0.60;;;;;;;19.32;59.10;100368.56;5055937;28;20040;-83
2022/07/19 02:43:17;;;;;;;3.28;0.82;;;;;;;19.30;59.04;100349.00;5048541;28;20037;-82
2022/07/19 02:45:43;;;;;;;1.45;0.93;;;;;;;19.24;58.59;100335.88;5033082;28;20075;-83
2022/07/19 02:48:09;;;;;;;2.25;1.15;;;;;;;19.42;59.18;100369.03;5050651;28;20032;-82
2022/07/19 02:50:35;;;;;;;5.28;1.33;;;;;;;19.21;59.31;100353.88;5057979;28;20107;-82
2022/07/19 02:53:01;;;;;;;1.35;0.90;;;;;;;19.11;59.81;100356.91;5070156;28;20143;-82
2022/07/19 02:55:26;;;;;;;3.67;1.38;;;;;;;19.28;59.91;100384.78;5049870;28;20029;-82
2022/07/19 02:57:52;;;;;;;1.08;0.68;;;;;;;19.23;59.04;100368.03;5051003;28;20563;-82
2022/07/19 03:00:18;;;;;;;1.60;0.90;;;;;;;19.04;59.91;100346.53;5050903;28;20094;-82
2022/07/19 03:02:44;;;;;;;1.17;0.77;;;;;;;19.04;59.47;100342.03;5050528;28;20414;-83
2022/07/19 03:05:09;;;;;;;1.02;0.85;;;;;;;19.12;59.36;100356.00;5050242;28;20036;-83
2022/07/19 03:07:35;;;;;;;2.33;1.33;;;;;;;19.35;59.47;100375.56;5050958;28;20115;-83
2022/07/19 03:10:00;;;;;;;1.58;1.13;;;;;;;19.28;59.33;100366.06;5062679;28;20032;-83
2022/07/19 03:12:26;;;;;;;1.55;1.08;;;;;;;19.00;59.74;100337.75;5070066;28;20062;-82
2022/07/19 03:14:51;;;;;;;4.85;0.95;;;;;;;18.91;59.74;100332.78;5069884;28;20098;-84
2022/07/19 03:17:17;;;;;;;3.85;1.45;;;;;;;18.89;59.29;100364.91;5059159;28;20037;-85
2022/07/19 03:19:42;;;;;;;2.15;1.40;;;;;;;19.07;58.70;100378.47;5069856;28;20071;-82
2022/07/19 03:22:08;;;;;;;1.13;0.77;;;;;;;18.79;59.22;100374.16;5058754;28;20032;-83
2022/07/19 03:24:33;;;;;;;1.50;1.10;;;;;;;18.60;59.97;100377.53;5056013;28;20063;-84
2022/07/19 03:26:59;;;;;;;3.15;1.98;;;;;;;18.50;61.12;100380.59;5049738;28;20115;-83
2022/07/19 03:29:24;;;;;;;2.75;1.95;;;;;;;18.31;61.48;100373.28;5049542;28;20052;-83
2022/07/19 03:31:50;;;;;;;0.93;0.70;;;;;;;18.38;61.91;100396.16;5046830;28;20486;-84
2022/07/19 03:34:16;;;;;;;1.33;0.95;;;;;;;18.14;62.58;100371.19;5061709;28;20033;-82
2022/07/19 03:36:41;;;;;;;2.50;0.90;;;;;;;18.12;63.09;100367.72;5063294;28;20033;-83
2022/07/19 03:39:07;;;;;;;6.78;3.88;;;;;;;18.09;62.64;100351.81;5055603;28;20028;-84
2022/07/19 03:41:33;;;;;;;5.20;1.50;;;;;;;18.12;62.79;100337.47;5048201;28;20040;-83
2022/07/19 03:43:58;;;;;;;5.53;1.50;;;;;;;18.34;62.56;100361.63;5049524;28;20075;-83
2022/07/19 03:46:24;;;;;;;3.10;2.50;;;;;;;18.46;62.88;100393.22;5053238;28;20044;-82
2022/07/19 03:48:50;;;;;;;16.10;2.38;;;;;;;18.45;62.75;100371.91;5069667;28;20491;-83
2022/07/19 03:51:15;;;;;;;4.35;1.48;;;;;;;18.59;62.71;100383.81;5059338;28;20063;-80
2022/07/19 03:53:41;;;;;;;9.70;1.92;;;;;;;18.89;61.56;100380.06;5037342;28;20132;-80
2022/07/19 03:56:06;;;;;;;5.55;3.88;;;;;;;18.77;61.42;100360.88;5064281;28;20048;-82
2022/07/19 03:58:32;;;;;;;7.30;4.75;;;;;;;18.95;61.19;100364.66;5067968;28;20040;-81
2022/07/19 04:00:57;;;;;;;8.95;2.08;;;;;;;18.94;61.73;100362.06;5050180;28;20033;-81
2022/07/19 04:03:23;;;;;;;3.00;1.83;;;;;;;18.93;61.94;100371.00;5049020;28;20487;-82
2022/07/19 04:05:49;;;;;;;2.10;1.90;;;;;;;18.98;61.83;100370.81;5049134;28;20029;-82
2022/07/19 04:08:14;;;;;;;4.32;1.92;;;;;;;19.31;61.13;100382.00;5048705;28;20086;-81
2022/07/19 04:10:41;;;;;;;1.92;1.25;;;;;;;19.64;60.72;100392.25;5048579;28;20128;-83
2022/07/19 04:13:07;;;;;;;3.60;1.85;;;;;;;19.94;59.13;100386.53;5050101;28;20116;-84
2022/07/19 04:15:32;;;;;;;2.53;1.30;;;;;;;19.96;58.90;100382.03;5049214;28;20540;-85
2022/07/19 04:17:58;;;;;;;14.43;2.45;;;;;;;20.03;59.56;100394.19;5058302;28;20552;-84
2022/07/19 04:20:23;;;;;;;5.47;2.25;;;;;;;20.01;59.30;100382.69;5032925;28;20105;-87
2022/07/19 04:22:49;;;;;;;3.97;2.85;;;;;;;20.10;59.37;100387.63;5059034;28;20028;-86
2022/07/19 04:25:14;;;;;;;3.53;1.85;;;;;;;20.24;59.36;100372.78;5049225;28;20525;-87
2022/07/19 04:27:40;;;;;;;2.40;1.60;;;;;;;20.36;59.08;100378.44;5060196;28;20036;-87
2022/07/19 04:30:07;;;;;;;3.75;2.50;;;;;;;20.58;58.49;100372.97;5054859;28;20037;-88
2022/07/19 04:32:33;;;;;;;3.10;1.92;;;;;;;20.81;57.93;100381.81;5045029;28;20563;-83
2022/07/19 04:34:59;;;;;;;2.35;2.00;;;;;;;21.13;56.71;100390.13;5068440;28;20029;-82
2022/07/19 04:37:25;;;;;;;4.60;2.50;;;;;;;20.93;55.15;100357.09;5065664;28;20043;-82
2022/07/19 04:39:51;;;;;;;2.47;1.67;;;;;;;21.52;54.35;100402.59;5068342;28;20032;-82
2022/07/19 04:42:16;;;;;;;3.17;2.05;;;;;;;21.19;54.77;100373.72;5068411;28;20032;-83
2022/07/19 04:44:42;;;;;;;2.60;1.52;;;;;;;21.42;55.12;100375.28;5067250;28;20758;-82
2022/07/19 04:47:07;;;;;;;5.15;2.63;;;;;;;21.53;54.62;100377.47;5061309;28;20040;-82
2022/07/19 04:49:33;;;;;;;2.08;1.52;;;;;;;21.29;54.23;100364.31;5030023;28;20045;-85
2022/07/19 04:51:59;;;;;;;1.85;1.05;;;;;;;21.24;54.98;100382.44;5062510;28;20029;-83
2022/07/19 04:54:24;;;;;;;5.93;1.83;;;;;;;21.08;56.45;100393.03;5060191;28;20486;-84
2022/07/19 04:56:51;;;;;;;2.97;1.83;;;;;;;20.97;56.88;100368.53;5068196;28;20025;-85
2022/07/19 04:59:16;;;;;;;3.55;2.92;;;;;;;20.44;58.49;100345.94;5068035;28;20066;-83
2022/07/19 05:13:57;;;;;;;2.88;1.63;;;;;;;21.71;57.47;100381.06;5124965;27;20124;-90
2022/07/19 05:16:23;;;;;;;5.00;2.03;;;;;;;21.80;54.69;100371.69;5105244;28;20578;-92
2022/07/19 05:18:48;;;;;;;2.13;1.60;;;;;;;22.01;55.78;100369.69;5109284;28;20042;-91
2022/07/19 05:21:14;;;;;;;3.33;1.35;;;;;;;22.00;54.12;100374.22;5115514;28;20111;-90
2022/07/19 05:23:41;;;;;;;0.88;0.88;;;;;;;22.24;53.04;100364.94;5110127;28;20089;-93
2022/07/19 05:26:07;;;;;;;2.60;1.42;;;;;;;22.22;53.39;100416.06;5104836;28;20082;-91
2022/07/19 05:28:32;;;;;;;2.22;1.20;;;;;;;22.28;52.49;100380.81;5107553;28;20426;-89
2022/07/19 05:30:59;;;;;;;1.23;0.70;;;;;;;22.19;52.80;100354.44;5105468;28;20034;-90
2022/07/19 05:33:27;;;;;;;2.97;1.55;;;;;;;22.65;51.89;100389.63;5087707;28;20056;-90
2022/07/19 05:35:52;;;;;;;4.35;2.08;;;;;;;22.50;50.96;100375.19;5110913;28;20589;-90
2022/07/19 05:38:18;;;;;;;3.28;1.42;;;;;;;22.50;51.00;100363.59;5111610;28;20050;-90
2022/07/19 05:40:43;;;;;;;1.20;1.10;;;;;;;22.73;51.59;100396.44;5109382;28;20081;-90
2022/07/19 05:43:12;;;;;;;2.95;0.80;;;;;;;22.83;51.38;100368.94;5085318;28;20156;-89
2022/07/19 05:45:37;;;;;;;1.77;1.27;;;;;;;22.97;49.97;100361.91;5104278;28;20063;-90
2022/07/19 05:48:05;;;;;;;3.30;1.98;;;;;;;23.13;50.01;100367.34;5097303;28;20090;-93
2022/07/19 05:50:31;;;;;;;3.30;1.88;;;;;;;23.13;50.21;100356.59;5073722;28;20031;-90
2022/07/19 05:52:56;;;;;;;2.63;1.38;;;;;;;23.50;49.97;100389.47;5104244;28;20520;-90
2022/07/19 05:55:22;;;;;;;5.60;1.75;;;;;;;23.10;49.36;100365.69;5091635;28;20411;-90
2022/07/19 05:57:47;;;;;;;3.08;1.40;;;;;;;23.29;49.39;100362.78;5126244;28;20039;-91
2022/07/19 06:00:14;;;;;;;1.23;0.95;;;;;;;23.37;50.20;100390.16;5118872;28;20020;-93
2022/07/19 06:02:40;;;;;;;1.55;1.40;;;;;;;23.33;49.53;100350.06;5095313;28;20039;-93
2022/07/19 06:05:06;;;;;;;1.30;1.20;;;;;;;23.88;48.60;100391.75;5101108;28;20108;-89
2022/07/19 06:07:31;;;;;;;1.70;1.30;;;;;;;24.04;48.95;100375.53;5114648;28;20062;-91
2022/07/19 06:09:57;;;;;;;1.58;1.05;;;;;;;24.23;48.46;100380.66;5110684;28;20441;-91
2022/07/19 06:12:23;;;;;;;1.83;0.90;;;;;;;24.47;47.44;100368.38;5091626;28;20065;-89
2022/07/19 06:14:48;;;;;;;3.38;1.35;;;;;;;24.24;47.65;100360.84;5074185;28;20033;-94
2022/07/19 06:17:14;;;;;;;1.33;1.23;;;;;;;24.57;46.17;100365.09;5073150;28;20575;-92
2022/07/19 06:19:39;;;;;;;1.55;1.25;;;;;;;24.84;46.83;100360.69;5091331;28;20028;-94
2022/07/19 06:22:05;;;;;;;1.80;1.20;;;;;;;24.75;44.97;100322.66;5091006;28;20509;-89
2022/07/19 06:24:30;;;;;;;1.55;1.15;;;;;;;25.02;45.31;100347.84;5089572;28;20040;-87
2022/07/19 06:26:56;;;;;;;3.33;1.85;;;;;;;25.50;44.27;100346.53;5089101;28;20032;-89
2022/07/19 06:29:21;;;;;;;8.77;1.98;;;;;;;25.41;45.73;100366.94;5070952;28;20119;-86
2022/07/19 06:31:48;;;;;;;1.52;1.10;;;;;;;26.03;43.59;100370.94;5088804;28;20036;-85
2022/07/19 06:34:13;;;;;;;1.02;0.90;;;;;;;26.12;44.28;100375.69;5089098;28;20519;-84
2022/07/19 06:36:39;;;;;;;2.33;1.27;;;;;;;26.52;41.89;100396.34;5088547;28;20061;-85
2022/07/19 06:39:04;;;;;;;5.15;1.40;;;;;;;26.55;42.52;100391.59;5089337;28;20078;-86
2022/07/19 06:41:30;;;;;;;1.88;1.13;;;;;;;26.25;43.35;100403.59;5071260;28;20024;-85
2022/07/19 06:43:55;;;;;;;1.45;1.00;;;;;;;26.58;41.88;100385.09;5090017;28;20760;-85
2022/07/19 06:46:21;;;;;;;3.55;1.55;;;;;;;26.52;43.22;100369.31;5089200;28;20045;-84
2022/07/19 06:48:46;;;;;;;2.03;1.10;;;;;;;26.93;43.71;100365.50;5089483;28;20455;-85
2022/07/19 06:51:12;;;;;;;6.90;1.58;;;;;;;27.18;42.14;100337.47;5089193;28;20024;-86
2022/07/19 06:53:37;;;;;;;1.73;1.10;;;;;;;27.29;41.17;100351.06;5088759;28;20719;-85
2022/07/19 06:56:04;;;;;;;5.32;1.85;;;;;;;28.08;40.45;100374.13;5088628;28;20032;-86
2022/07/19 06:58:29;;;;;;;2.30;1.10;;;;;;;28.10;39.03;100373.03;5088396;28;20070;-85
2022/07/19 07:00:55;;;;;;;1.55;1.10;;;;;;;28.04;40.49;100349.97;5088466;28;20117;-85
2022/07/19 07:03:20;;;;;;;3.40;1.55;;;;;;;28.39;39.20;100391.56;5088209;28;20031;-85
2022/07/19 07:05:46;;;;;;;2.22;1.30;;;;;;;28.57;38.16;100365.66;5088322;28;20501;-88
2022/07/19 07:08:12;;;;;;;0.95;0.88;;;;;;;27.96;41.30;100352.41;5089134;28;20035;-86
2022/07/19 07:10:39;;;;;;;2.05;0.95;;;;;;;28.26;38.01;100345.56;5088811;28;20511;-85
2022/07/19 07:13:05;;;;;;;1.08;1.00;;;;;;;28.10;37.77;100358.59;5088635;28;20138;-86
2022/07/19 07:15:31;;;;;;;1.52;0.95;;;;;;;28.34;38.43;100351.22;5070940;28;20469;-84
2022/07/19 07:17:57;;;;;;;0.68;0.65;;;;;;;28.97;38.94;100350.75;5088868;28;20181;-84
2022/07/19 07:20:22;;;;;;;1.60;0.93;;;;;;;28.32;37.09;100338.78;5088448;28;20110;-83
2022/07/19 07:22:48;;;;;;;1.67;0.90;;;;;;;28.32;38.19;100339.66;5088883;28;20092;-84
2022/07/19 07:25:13;;;;;;;6.88;1.02;;;;;;;28.49;38.00;100351.00;5086826;28;20500;-84
2022/07/19 07:27:39;;;;;;;1.45;1.02;;;;;;;28.52;37.19;100357.06;5088317;28;20462;-85
2022/07/19 07:30:06;;;;;;;1.30;0.98;;;;;;;28.83;35.71;100345.63;5088811;28;20042;-85
2022/07/19 07:32:31;;;;;;;1.60;0.85;;;;;;;28.62;37.44;100340.06;5088347;28;20109;-86
2022/07/19 07:34:57;;;;;;;1.75;1.08;;;;;;;28.94;36.03;100334.72;5087344;28;20070;-86
2022/07/19 07:37:22;;;;;;;1.00;0.75;;;;;;;28.87;35.50;100336.22;5088562;28;20027;-85
2022/07/19 07:39:48;;;;;;;1.42;1.10;;;;;;;28.65;36.06;100307.25;5088444;28;20035;-85
2022/07/19 07:42:13;;;;;;;2.42;1.15;;;;;;;28.81;37.94;100324.03;5086623;28;20562;-85
2022/07/19 07:44:40;;;;;;;1.20;0.93;;;;;;;29.43;35.71;100319.81;5088162;28;20028;-86
2022/07/19 07:47:08;;;;;;;2.22;1.55;;;;;;;29.56;34.60;100356.81;5087910;28;20591;-86
2022/07/19 07:49:34;;;;;;;1.13;0.85;;;;;;;29.57;33.21;100334.94;5088067;28;20031;-86
2022/07/19 07:51:59;;;;;;;1.42;0.95;;;;;;;30.63;35.19;100367.59;5088079;28;20043;-85
2022/07/19 07:54:25;;;;;;;1.52;0.95;;;;;;;29.85;32.69;100318.16;5087334;28;20961;-86
2022/07/19 07:56:51;;;;;;;0.80;0.63;;;;;;;29.79;33.87;100341.25;5087981;28;20409;-86
2022/07/19 07:59:16;;;;;;;0.73;0.60;;;;;;;30.29;31.62;100343.31;5088194;28;20524;-86
2022/07/19 08:01:43;;;;;;;0.80;0.70;;;;;;;30.86;31.07;100339.19;5087617;28;20530;-86
2022/07/19 08:04:09;;;;;;;0.98;0.60;;;;;;;30.66;28.89;100288.38;5087825;28;20119;-86
2022/07/19 08:06:34;;;;;;;2.35;1.23;;;;;;;30.86;29.80;100290.16;5087622;28;20028;-87
2022/07/19 08:09:00;;;;;;;1.80;0.82;;;;;;;30.57;30.81;100319.13;5087587;28;20096;-85
2022/07/19 08:11:25;;;;;;;0.98;0.70;;;;;;;30.80;28.39;100323.41;5087615;28;20036;-87
2022/07/19 08:13:51;;;;;;;0.73;0.70;;;;;;;31.54;28.05;100341.22;5087012;28;20048;-86
2022/07/19 08:16:16;;;;;;;1.85;0.57;;;;;;;31.97;30.48;100314.47;5088311;28;20096;-86
2022/07/19 08:18:42;;;;;;;1.60;0.52;;;;;;;31.75;28.95;100321.09;5087304;28;20031;-86
2022/07/19 08:21:08;;;;;;;2.20;0.80;;;;;;;31.57;26.07;100315.50;5087232;28;20056;-88
2022/07/19 08:23:33;;;;;;;0.98;0.80;;;;;;;31.10;25.85;100312.59;5087093;28;20036;-86
2022/07/19 08:25:58;;;;;;;0.63;0.38;;;;;;;30.44;26.24;100314.78;5087864;28;20164;-87
2022/07/19 08:28:24;;;;;;;0.60;0.60;;;;;;;30.13;27.95;100290.25;5087301;28;20020;-86
2022/07/19 08:30:49;;;;;;;1.17;0.60;;;;;;;30.55;25.71;100285.75;5087349;28;20032;-85
2022/07/19 08:33:15;;;;;;;0.50;0.50;;;;;;;30.85;27.52;100310.22;5087504;28;20191;-85
2022/07/19 08:35:40;;;;;;;1.13;0.80;;;;;;;31.42;24.98;100309.63;5087363;28;20515;-85
2022/07/19 08:38:06;;;;;;;1.10;0.70;;;;;;;31.80;24.52;100299.72;5087246;28;20032;-85
2022/07/19 08:40:34;;;;;;;1.65;0.95;;;;;;;32.22;25.78;100288.44;5087134;28;20478;-85
2022/07/19 08:43:04;;;;;;;1.15;0.65;;;;;;;32.60;22.39;100302.06;5086900;28;20046;-88
2022/07/19 08:46:10;;;;;;;1.00;0.60;;;;;;;32.48;22.57;100317.78;5096895;28;20027;-93
2022/07/19 08:48:36;;;;;;;0.73;0.73;;;;;;;32.07;23.73;100298.06;5072332;28;20100;-91
2022/07/19 08:51:04;;;;;;;1.38;0.95;;;;;;;31.37;23.74;100312.78;5070078;28;20030;-96
2022/07/19 08:53:33;;;;;;;1.80;1.10;;;;;;;31.48;23.13;100279.06;5075664;28;20044;-96
2022/07/19 08:59:23;;;;;;;1.35;0.45;;;;;;;32.18;23.99;100300.66;5087406;28;20077;-84
2022/07/19 09:01:49;;;;;;;1.08;0.63;;;;;;;32.60;22.89;100282.97;5069088;28;20452;-89
2022/07/19 09:04:22;;;;;;;0.55;0.55;;;;;;;32.49;22.71;100297.69;5087261;28;20030;-89
2022/07/19 09:06:56;;;;;;;0.73;0.73;;;;;;;32.93;23.11;100292.41;5086823;28;20097;-89
2022/07/19 09:09:26;;;;;;;1.15;0.50;;;;;;;32.93;22.91;100300.63;5086906;28;20064;-88
2022/07/19 09:11:53;;;;;;;2.05;1.02;;;;;;;32.32;24.41;100272.03;5068351;28;20171;-88
2022/07/19 09:14:22;;;;;;;0.45;0.40;;;;;;;31.94;26.80;100303.84;5069008;28;20119;-89
2022/07/19 09:17:06;;;;;;;1.17;0.60;;;;;;;32.61;23.73;100284.66;5086718;28;20024;-90
2022/07/19 09:19:38;;;;;;;0.40;0.40;;;;;;;32.57;23.11;100261.44;5068194;28;20887;-88
2022/07/19 09:22:12;;;;;;;0.60;0.47;;;;;;;31.89;23.19;100247.00;5088162;28;20064;-94
2022/07/19 09:24:41;;;;;;;0.22;0.22;;;;;;;31.97;22.37;100237.22;5071341;28;20039;-90
2022/07/19 09:27:07;;;;;;;0.85;0.82;;;;;;;32.58;23.15;100269.47;5069165;28;20111;-91
2022/07/19 09:29:36;;;;;;;1.63;0.95;;;;;;;32.81;22.69;100253.56;5087054;28;20028;-88
2022/07/19 09:32:08;;;;;;;0.40;0.40;;;;;;;32.10;22.22;100285.03;5086625;28;20036;-85
2022/07/19 09:34:36;;;;;;;1.23;0.60;;;;;;;32.39;22.32;100258.63;5086306;28;20024;-84
2022/07/19 09:37:18;;;;;;;1.65;0.70;;;;;;;32.57;23.19;100255.97;5086843;28;20504;-85
2022/07/19 09:39:47;;;;;;;0.50;0.38;;;;;;;32.49;22.02;100243.94;5086575;28;20565;-84
2022/07/19 09:42:24;;;;;;;0.70;0.70;;;;;;;32.64;23.02;100257.06;5087080;28;20097;-84
2022/07/19 09:45:02;;;;;;;1.52;1.00;;;;;;;32.98;21.72;100254.59;5086611;28;20047;-83
2022/07/19 09:47:32;;;;;;;0.43;0.38;;;;;;;32.33;23.22;100268.28;5086510;28;20020;-91
2022/07/19 09:49:57;;;;;;;1.30;0.75;;;;;;;32.54;25.36;100264.47;5071337;28;20069;-89
2022/07/19 09:52:24;;;;;;;0.90;0.70;;;;;;;32.87;23.00;100262.97;5090005;28;20066;-90
2022/07/19 09:54:51;;;;;;;2.28;0.70;;;;;;;32.97;22.90;100257.47;5072889;28;20405;-89
2022/07/19 09:57:23;;;;;;;0.82;0.40;;;;;;;32.91;22.45;100247.16;5073289;28;20024;-91
2022/07/19 09:59:51;;;;;;;0.70;0.40;;;;;;;32.88;22.54;100270.16;5090527;28;20032;-91
2022/07/19 10:02:21;;;;;;;1.02;0.65;;;;;;;32.80;23.04;100248.25;5071843;28;20032;-89
2022/07/19 10:04:46;;;;;;;1.40;0.57;;;;;;;32.98;22.03;100257.31;5071793;28;20060;-90
2022/07/19 10:07:13;;;;;;;0.98;0.60;;;;;;;33.16;21.63;100227.25;5091160;28;20067;-90
2022/07/19 10:09:39;;;;;;;0.82;0.38;;;;;;;32.74;23.11;100218.81;5072986;28;20123;-90
2022/07/19 10:12:05;;;;;;;10.88;1.33;;;;;;;32.71;22.67;100243.69;5071438;28;20608;-88
2022/07/19 10:14:31;;;;;;;9.25;2.63;;;;;;;32.66;23.63;100223.16;5072723;28;20129;-88
2022/07/19 10:17:13;;;;;;;0.77;0.52;;;;;;;32.85;22.90;100259.56;5090692;28;20050;-92
2022/07/19 10:19:47;;;;;;;0.47;0.45;;;;;;;32.56;22.60;100241.44;5077218;28;20039;-94
2022/07/19 10:22:24;;;;;;;0.77;0.50;;;;;;;32.47;21.47;100228.69;5071969;28;20679;-92
2022/07/19 10:24:56;;;;;;;0.90;0.60;;;;;;;32.83;22.13;100212.44;5072417;28;20036;-86
2022/07/19 10:27:24;;;;;;;1.95;1.02;;;;;;;33.26;23.44;100237.25;5091315;28;20579;-84
2022/07/19 10:30:13;;;;;;;0.77;0.68;;;;;;;33.23;22.64;100234.84;5090842;28;20028;-86
2022/07/19 10:32:44;;;;;;;1.33;0.90;;;;;;;32.95;22.03;100246.69;5078298;28;20036;-89
2022/07/19 10:35:19;;;;;;;2.35;0.52;;;;;;;31.65;23.22;100206.59;5091347;28;20032;-89
2022/07/19 10:37:50;;;;;;;1.30;1.05;;;;;;;31.94;24.20;100209.22;5090483;28;20068;-83
2022/07/19 10:40:42;;;;;;;1.30;0.98;;;;;;;32.22;23.89;100217.47;5089584;28;20043;-85
2022/07/19 10:43:15;;;;;;;0.98;0.43;;;;;;;32.66;23.69;100219.59;5089161;28;20093;-84
2022/07/19 10:46:04;;;;;;;0.95;0.68;;;;;;;32.41;22.51;100212.94;5089373;28;20031;-84
2022/07/19 10:48:37;;;;;;;2.83;1.00;;;;;;;32.65;23.27;100204.22;5075901;28;20039;-84
2022/07/19 10:51:02;;;;;;;1.00;0.47;;;;;;;33.07;23.22;100202.75;5089207;28;20034;-84
2022/07/19 10:53:54;;;;;;;0.85;0.57;;;;;;;32.60;23.10;100206.50;5089079;28;20028;-87
2022/07/19 10:56:25;;;;;;;1.05;0.75;;;;;;;31.98;23.42;100200.75;5078525;28;20044;-88
2022/07/19 10:58:54;;;;;;;1.30;0.60;;;;;;;32.20;24.83;100188.63;5089298;28;20047;-85
2022/07/19 11:01:21;;;;;;;1.50;0.50;;;;;;;32.59;22.84;100194.72;5088684;28;20028;-87
2022/07/19 11:03:49;;;;;;;0.93;0.45;;;;;;;31.96;23.75;100195.44;5088700;28;20024;-83
2022/07/19 11:06:24;;;;;;;1.60;0.85;;;;;;;31.93;24.25;100198.47;5089147;28;20517;-86
2022/07/19 11:08:52;;;;;;;;;;;;;;;32.10;22.55;100185.94;5089545;28;20118;-86
2022/07/19 11:11:19;;;;;;;0.57;0.50;;;;;;;32.19;26.07;100146.81;5089326;28;19981;-84
2022/07/19 11:13:57;;;;;;;1.77;0.95;;;;;;;32.85;24.68;100183.06;5088581;28;20402;-84
2022/07/19 11:16:25;;;;;;;0.70;0.57;;;;;;;33.17;22.24;100151.59;5088605;28;20044;-84
2022/07/19 11:18:51;;;;;;;0.95;0.73;;;;;;;33.19;21.80;100157.78;5088513;28;20767;-83
2022/07/19 11:21:17;;;;;;;0.88;0.65;;;;;;;33.15;22.84;100157.22;5088302;28;20032;-83
2022/07/19 11:23:44;;;;;;;1.05;0.60;;;;;;;33.15;22.46;100161.81;5088804;28;20027;-83
2022/07/19 11:26:17;;;;;;;0.57;0.50;;;;;;;32.72;23.05;100136.16;5089007;28;20039;-91
2022/07/19 11:28:44;;;;;;;0.50;0.50;;;;;;;32.21;23.34;100120.28;5071217;28;20035;-88
2022/07/19 11:31:16;;;;;;;0.82;0.57;;;;;;;31.77;23.99;100150.00;5090455;28;20028;-89
2022/07/19 11:33:43;;;;;;;2.15;0.80;;;;;;;32.25;23.00;100157.13;5071446;28;20954;-86
2022/07/19 11:36:09;;;;;;;0.95;0.70;;;;;;;32.17;23.63;100135.22;5090268;28;20028;-90
2022/07/19 11:38:43;;;;;;;1.77;0.80;;;;;;;32.43;23.21;100150.88;5088570;28;20032;-87